Ana Sayfa
METAR-TAF:

METAR-TAF

Havaalanları :

Altus, Oklahoma, Amerika Birleşik Devletleri

Enlem: 34-41-55N, Boylam: 099-20-17W, yükseklik: 437 m

Güncel hava durumu gözlemi

Rapor saat 10:55 UTC de 25 dakika önce yapıldı.
Rüzgar güney/güneydoğudan 11 kt
Sıcaklık 24°C
Nem 74%
Basınç 1009 hPa
Görüş mesafesi: 16.1 km
Açık gökyüzü

METAR: KAXS 161055Z AUTO 15011KT 10SM CLR 24/19 A2981 RMK AO2 LTG DSNT N AND NE

Saat: 06:20 (11:20 UTC)


TAF: eksik

4.000'den fazla havaalanı için hava durumu gözlemleri ve tahminleri (METAR ve TAF raporları).

Kullanılabilir istasyonlar harita üzerinde sarı ve kırmızı noktalarla gösterilir.

İstasyonun adını görmek için fareyi noktanın üzerinde gezdirin.

Sonrasında hava gözlem ve tahminlerini görmek için tıklayın.

Haritayı değiştirmek için: yaklaştırmak için siyah artı işaretli yeşil düğmeye ve uzaklaştırmak için de eksi işaretli düğmeye hızla tıklayın; bitişik haritalar için yeşil okları kullanın.


METAR-TAF: